AQQ10 IFIS: Internet Flight Information System
logo dgac
Miércoles 19 de Junio del 2024
Buscar por aerodromo o helipuerto
Ingrese nombre de aeródromo, localidad o designador OACI:
METAR del 19-06-2024 a las 10:00 UTC
Para mayor información visite www.meteochile.gob.cl
METAR SCAT 191000Z AUTO 15005KT 9999 NCD 09/06 Q1016
Viento: dirección 150 grados, velocidad 5 nudos
Visibilidad: 10 km o más
Temperatura: 9 °C
Rocío: 6 °C
Humedad_relativa: 81%
Presión: 1016 hPa
METAR del 19-06-2024 a las 08:00 UTC
Para mayor información visite www.meteochile.gob.cl
METAR SCAT 190800Z AUTO 16003KT 9999 NCD 09/06 Q1016
Viento: dirección 160 grados, velocidad 3 nudos
Visibilidad: 10 km o más
Temperatura: 9 °C
Rocío: 6 °C
Humedad_relativa: 81%
Presión: 1016 hPa
METAR del 19-06-2024 a las 07:00 UTC
Para mayor información visite www.meteochile.gob.cl
METAR SCAT 190700Z AUTO 11007KT 9999 NCD 09/06 Q1016
Viento: dirección 110 grados, velocidad 7 nudos
Visibilidad: 10 km o más
Temperatura: 9 °C
Rocío: 6 °C
Humedad_relativa: 81%
Presión: 1016 hPa
METAR del 19-06-2024 a las 05:00 UTC
Para mayor información visite www.meteochile.gob.cl
METAR SCAT 190500Z AUTO 13005KT 9999 NCD 10/07 Q1016
Viento: dirección 130 grados, velocidad 5 nudos
Visibilidad: 10 km o más
Temperatura: 10 °C
Rocío: 7 °C
Humedad_relativa: 82%
Presión: 1016 hPa
METAR del 19-06-2024 a las 02:00 UTC
Para mayor información visite www.meteochile.gob.cl
METAR SCAT 190200Z AUTO 07008KT 9999 NCD 12/10 Q1017
Viento: dirección 070 grados, velocidad 8 nudos
Visibilidad: 10 km o más
Temperatura: 12 °C
Rocío: 10 °C
Humedad_relativa: 88%
Presión: 1017 hPa
METAR del 19-06-2024 a las 01:00 UTC
Para mayor información visite www.meteochile.gob.cl
METAR SCAT 190100Z 08003KT 040V110 CAVOK 12/11 Q1017
Viento: dirección 080 grados, velocidad 3 nudos
Viento con dirección variable entre 040 y 110 grados
Visibilidad: 10 km o más,
    sin nubes bajo los 5.000 pies o bajo del MSA (Mínimo de Seguridad del Aeródromo),
    sin cumulonimbus, y sin fenómenos de tiempo significativo en el aeródromo o alrededores
Temperatura: 12 °C
Rocío: 11 °C
Humedad_relativa: 94%
Presión: 1017 hPa
METAR del 19-06-2024 a las 00:00 UTC
Para mayor información visite www.meteochile.gob.cl
METAR SCAT 190000Z 21005KT 9999 BKN011 13/11 Q1017
Viento: dirección 210 grados, velocidad 5 nudos
Visibilidad: 10 km o más
Nubes: Nublado a 1100 pies sobre el nivel del aeródromo
Temperatura: 13 °C
Rocío: 11 °C
Humedad_relativa: 88%
Presión: 1017 hPa
METAR del 18-06-2024 a las 23:00 UTC
Para mayor información visite www.meteochile.gob.cl
METAR SCAT 182300Z 20005KT CAVOK 13/11 Q1016
Viento: dirección 200 grados, velocidad 5 nudos
Visibilidad: 10 km o más,
    sin nubes bajo los 5.000 pies o bajo del MSA (Mínimo de Seguridad del Aeródromo),
    sin cumulonimbus, y sin fenómenos de tiempo significativo en el aeródromo o alrededores
Temperatura: 13 °C
Rocío: 11 °C
Humedad_relativa: 88%
Presión: 1016 hPa
METAR del 18-06-2024 a las 22:00 UTC
Para mayor información visite www.meteochile.gob.cl
METAR SCAT 182200Z 22010KT CAVOK 15/11 Q1016
Viento: dirección 220 grados, velocidad 10 nudos
Visibilidad: 10 km o más,
    sin nubes bajo los 5.000 pies o bajo del MSA (Mínimo de Seguridad del Aeródromo),
    sin cumulonimbus, y sin fenómenos de tiempo significativo en el aeródromo o alrededores
Temperatura: 15 °C
Rocío: 11 °C
Humedad_relativa: 77%
Presión: 1016 hPa
METAR del 18-06-2024 a las 21:00 UTC
Para mayor información visite www.meteochile.gob.cl
METAR SCAT 182100Z 22011KT CAVOK 17/08 Q1015
Viento: dirección 220 grados, velocidad 11 nudos
Visibilidad: 10 km o más,
    sin nubes bajo los 5.000 pies o bajo del MSA (Mínimo de Seguridad del Aeródromo),
    sin cumulonimbus, y sin fenómenos de tiempo significativo en el aeródromo o alrededores
Temperatura: 17 °C
Rocío: 8 °C
Humedad_relativa: 55%
Presión: 1015 hPa